sensor_id;sensor_type;location;lat;lon;timestamp;P1;durP1;ratioP1;P2;durP2;ratioP2
43744;SDS011;29359;53.048;8.732;2023-05-07T00:00:22;13.10;;;9.40;;
43744;SDS011;29359;53.048;8.732;2023-05-07T00:02:24;11.43;;;8.77;;
43744;SDS011;29359;53.048;8.732;2023-05-07T00:04:25;11.02;;;9.25;;
43744;SDS011;29359;53.048;8.732;2023-05-07T00:06:27;10.68;;;9.25;;
43744;SDS011;29359;53.048;8.732;2023-05-07T00:08:30;11.05;;;8.93;;
43744;SDS011;29359;53.048;8.732;2023-05-07T00:10:31;12.93;;;10.05;;
43744;SDS011;29359;53.048;8.732;2023-05-07T00:12:33;10.98;;;9.82;;
43744;SDS011;29359;53.048;8.732;2023-05-07T00:14:35;12.70;;;8.70;;
43744;SDS011;29359;53.048;8.732;2023-05-07T00:16:36;14.40;;;10.15;;
43744;SDS011;29359;53.048;8.732;2023-05-07T00:18:38;11.32;;;9.20;;
43744;SDS011;29359;53.048;8.732;2023-05-07T00:20:39;13.38;;;9.50;;
43744;SDS011;29359;53.048;8.732;2023-05-07T00:22:41;13.77;;;9.68;;
43744;SDS011;29359;53.048;8.732;2023-05-07T00:24:42;11.25;;;8.93;;
43744;SDS011;29359;53.048;8.732;2023-05-07T00:26:44;13.90;;;9.60;;
43744;SDS011;29359;53.048;8.732;2023-05-07T00:28:45;13.30;;;10.07;;
43744;SDS011;29359;53.048;8.732;2023-05-07T00:30:47;13.48;;;9.68;;
43744;SDS011;29359;53.048;8.732;2023-05-07T00:32:48;10.32;;;9.23;;
43744;SDS011;29359;53.048;8.732;2023-05-07T00:34:52;11.15;;;8.60;;
43744;SDS011;29359;53.048;8.732;2023-05-07T00:36:53;9.70;;;8.70;;
43744;SDS011;29359;53.048;8.732;2023-05-07T00:38:56;12.23;;;8.85;;
43744;SDS011;29359;53.048;8.732;2023-05-07T00:41:00;11.68;;;9.15;;
43744;SDS011;29359;53.048;8.732;2023-05-07T00:43:01;13.48;;;10.63;;
43744;SDS011;29359;53.048;8.732;2023-05-07T00:45:03;11.70;;;10.50;;
43744;SDS011;29359;53.048;8.732;2023-05-07T00:47:05;11.18;;;9.70;;
43744;SDS011;29359;53.048;8.732;2023-05-07T00:49:07;10.75;;;9.45;;
43744;SDS011;29359;53.048;8.732;2023-05-07T00:51:09;12.65;;;9.68;;
43744;SDS011;29359;53.048;8.732;2023-05-07T00:53:12;11.35;;;9.45;;
43744;SDS011;29359;53.048;8.732;2023-05-07T00:55:14;10.52;;;9.43;;
43744;SDS011;29359;53.048;8.732;2023-05-07T00:57:16;10.35;;;9.35;;
43744;SDS011;29359;53.048;8.732;2023-05-07T00:59:17;10.75;;;9.65;;
43744;SDS011;29359;53.048;8.732;2023-05-07T01:01:19;13.23;;;10.25;;
43744;SDS011;29359;53.048;8.732;2023-05-07T01:03:21;12.18;;;10.85;;
43744;SDS011;29359;53.048;8.732;2023-05-07T01:05:23;11.63;;;9.57;;
43744;SDS011;29359;53.048;8.732;2023-05-07T01:07:27;11.98;;;10.52;;
43744;SDS011;29359;53.048;8.732;2023-05-07T01:09:29;11.63;;;10.38;;
43744;SDS011;29359;53.048;8.732;2023-05-07T01:11:31;11.85;;;10.32;;
43744;SDS011;29359;53.048;8.732;2023-05-07T01:13:33;11.70;;;10.38;;
43744;SDS011;29359;53.048;8.732;2023-05-07T01:15:36;12.02;;;10.80;;
43744;SDS011;29359;53.048;8.732;2023-05-07T01:17:39;15.60;;;10.27;;
43744;SDS011;29359;53.048;8.732;2023-05-07T01:19:42;12.30;;;10.00;;
43744;SDS011;29359;53.048;8.732;2023-05-07T01:21:44;12.15;;;9.88;;
43744;SDS011;29359;53.048;8.732;2023-05-07T01:23:48;11.07;;;9.98;;
43744;SDS011;29359;53.048;8.732;2023-05-07T01:25:54;11.43;;;10.15;;
43744;SDS011;29359;53.048;8.732;2023-05-07T01:27:56;11.45;;;10.20;;
43744;SDS011;29359;53.048;8.732;2023-05-07T01:29:57;13.05;;;10.15;;
43744;SDS011;29359;53.048;8.732;2023-05-07T01:31:59;12.57;;;10.25;;
43744;SDS011;29359;53.048;8.732;2023-05-07T01:34:02;12.02;;;9.93;;
43744;SDS011;29359;53.048;8.732;2023-05-07T01:36:06;12.95;;;10.02;;
43744;SDS011;29359;53.048;8.732;2023-05-07T01:38:09;12.82;;;10.80;;
43744;SDS011;29359;53.048;8.732;2023-05-07T01:40:11;10.63;;;9.25;;
43744;SDS011;29359;53.048;8.732;2023-05-07T01:42:13;11.40;;;10.15;;
43744;SDS011;29359;53.048;8.732;2023-05-07T01:44:14;15.73;;;10.07;;
43744;SDS011;29359;53.048;8.732;2023-05-07T01:46:17;10.50;;;9.30;;
43744;SDS011;29359;53.048;8.732;2023-05-07T01:48:19;10.75;;;9.05;;
43744;SDS011;29359;53.048;8.732;2023-05-07T01:50:21;13.50;;;10.35;;
43744;SDS011;29359;53.048;8.732;2023-05-07T01:52:24;12.55;;;10.05;;
43744;SDS011;29359;53.048;8.732;2023-05-07T01:54:26;14.18;;;10.15;;
43744;SDS011;29359;53.048;8.732;2023-05-07T01:56:31;13.32;;;10.15;;
43744;SDS011;29359;53.048;8.732;2023-05-07T01:58:33;11.65;;;10.23;;
43744;SDS011;29359;53.048;8.732;2023-05-07T02:00:34;10.90;;;9.32;;
43744;SDS011;29359;53.048;8.732;2023-05-07T02:02:36;12.68;;;9.55;;
43744;SDS011;29359;53.048;8.732;2023-05-07T02:04:39;11.43;;;9.50;;
43744;SDS011;29359;53.048;8.732;2023-05-07T02:06:41;11.52;;;10.10;;
43744;SDS011;29359;53.048;8.732;2023-05-07T02:08:42;11.63;;;9.60;;
43744;SDS011;29359;53.048;8.732;2023-05-07T02:10:44;10.93;;;9.43;;
43744;SDS011;29359;53.048;8.732;2023-05-07T02:12:45;13.38;;;10.05;;
43744;SDS011;29359;53.048;8.732;2023-05-07T02:14:47;13.52;;;10.00;;
43744;SDS011;29359;53.048;8.732;2023-05-07T02:16:48;10.52;;;9.43;;
43744;SDS011;29359;53.048;8.732;2023-05-07T02:18:50;13.02;;;9.77;;
43744;SDS011;29359;53.048;8.732;2023-05-07T02:20:52;11.50;;;9.02;;
43744;SDS011;29359;53.048;8.732;2023-05-07T02:22:53;12.85;;;9.77;;
43744;SDS011;29359;53.048;8.732;2023-05-07T02:24:55;11.35;;;9.38;;
43744;SDS011;29359;53.048;8.732;2023-05-07T02:26:56;11.90;;;9.95;;
43744;SDS011;29359;53.048;8.732;2023-05-07T02:28:58;10.60;;;9.02;;
43744;SDS011;29359;53.048;8.732;2023-05-07T02:30:59;10.80;;;9.23;;
43744;SDS011;29359;53.048;8.732;2023-05-07T02:33:01;12.07;;;10.35;;
43744;SDS011;29359;53.048;8.732;2023-05-07T02:35:03;12.20;;;9.93;;
43744;SDS011;29359;53.048;8.732;2023-05-07T02:37:06;10.95;;;9.52;;
43744;SDS011;29359;53.048;8.732;2023-05-07T02:39:07;11.82;;;9.48;;
43744;SDS011;29359;53.048;8.732;2023-05-07T02:41:09;14.05;;;10.45;;
43744;SDS011;29359;53.048;8.732;2023-05-07T02:43:11;14.13;;;10.13;;
43744;SDS011;29359;53.048;8.732;2023-05-07T02:45:12;13.00;;;9.32;;
43744;SDS011;29359;53.048;8.732;2023-05-07T02:47:14;11.95;;;9.88;;
43744;SDS011;29359;53.048;8.732;2023-05-07T02:49:16;11.93;;;9.75;;
43744;SDS011;29359;53.048;8.732;2023-05-07T02:51:19;12.10;;;9.80;;
43744;SDS011;29359;53.048;8.732;2023-05-07T02:53:25;12.48;;;9.73;;
43744;SDS011;29359;53.048;8.732;2023-05-07T02:55:27;10.93;;;9.48;;
43744;SDS011;29359;53.048;8.732;2023-05-07T02:57:29;12.68;;;9.20;;
43744;SDS011;29359;53.048;8.732;2023-05-07T02:59:31;13.95;;;9.82;;
43744;SDS011;29359;53.048;8.732;2023-05-07T03:01:32;10.35;;;9.25;;
43744;SDS011;29359;53.048;8.732;2023-05-07T03:03:34;11.85;;;9.23;;
43744;SDS011;29359;53.048;8.732;2023-05-07T03:05:36;12.18;;;9.93;;
43744;SDS011;29359;53.048;8.732;2023-05-07T03:07:38;14.25;;;9.40;;
43744;SDS011;29359;53.048;8.732;2023-05-07T03:09:39;11.95;;;9.13;;
43744;SDS011;29359;53.048;8.732;2023-05-07T03:11:41;10.63;;;8.98;;
43744;SDS011;29359;53.048;8.732;2023-05-07T03:13:42;11.30;;;9.38;;
43744;SDS011;29359;53.048;8.732;2023-05-07T03:15:44;10.88;;;8.38;;
43744;SDS011;29359;53.048;8.732;2023-05-07T03:17:45;11.75;;;9.32;;
43744;SDS011;29359;53.048;8.732;2023-05-07T03:19:47;12.48;;;8.63;;
43744;SDS011;29359;53.048;8.732;2023-05-07T03:21:48;10.95;;;9.07;;
43744;SDS011;29359;53.048;8.732;2023-05-07T03:23:50;11.40;;;9.02;;
43744;SDS011;29359;53.048;8.732;2023-05-07T03:25:51;10.88;;;9.13;;
43744;SDS011;29359;53.048;8.732;2023-05-07T03:27:53;13.10;;;9.15;;
43744;SDS011;29359;53.048;8.732;2023-05-07T03:29:54;10.68;;;9.05;;
43744;SDS011;29359;53.048;8.732;2023-05-07T03:31:56;12.13;;;9.57;;
43744;SDS011;29359;53.048;8.732;2023-05-07T03:33:57;11.80;;;8.88;;
43744;SDS011;29359;53.048;8.732;2023-05-07T03:35:59;10.88;;;8.57;;
43744;SDS011;29359;53.048;8.732;2023-05-07T03:38:00;12.88;;;9.18;;
43744;SDS011;29359;53.048;8.732;2023-05-07T03:40:02;10.75;;;8.48;;
43744;SDS011;29359;53.048;8.732;2023-05-07T03:42:04;12.25;;;8.85;;
43744;SDS011;29359;53.048;8.732;2023-05-07T03:44:06;11.40;;;8.88;;
43744;SDS011;29359;53.048;8.732;2023-05-07T03:46:08;10.43;;;7.85;;
43744;SDS011;29359;53.048;8.732;2023-05-07T03:48:10;9.30;;;8.10;;
43744;SDS011;29359;53.048;8.732;2023-05-07T03:50:11;9.48;;;8.15;;
43744;SDS011;29359;53.048;8.732;2023-05-07T03:52:13;12.38;;;9.15;;
43744;SDS011;29359;53.048;8.732;2023-05-07T03:54:15;12.77;;;8.45;;
43744;SDS011;29359;53.048;8.732;2023-05-07T03:56:17;13.13;;;8.90;;
43744;SDS011;29359;53.048;8.732;2023-05-07T03:58:19;11.05;;;8.23;;
43744;SDS011;29359;53.048;8.732;2023-05-07T04:00:21;10.80;;;8.40;;
43744;SDS011;29359;53.048;8.732;2023-05-07T04:02:23;12.43;;;8.57;;
43744;SDS011;29359;53.048;8.732;2023-05-07T04:04:25;12.68;;;8.85;;
43744;SDS011;29359;53.048;8.732;2023-05-07T04:06:26;11.10;;;8.40;;
43744;SDS011;29359;53.048;8.732;2023-05-07T04:08:28;11.38;;;8.75;;
43744;SDS011;29359;53.048;8.732;2023-05-07T04:10:30;9.48;;;8.15;;
43744;SDS011;29359;53.048;8.732;2023-05-07T04:12:31;11.88;;;9.20;;
43744;SDS011;29359;53.048;8.732;2023-05-07T04:14:33;9.95;;;8.32;;
43744;SDS011;29359;53.048;8.732;2023-05-07T04:16:35;14.05;;;9.32;;
43744;SDS011;29359;53.048;8.732;2023-05-07T04:18:36;10.05;;;8.98;;
43744;SDS011;29359;53.048;8.732;2023-05-07T04:20:38;10.85;;;9.10;;
43744;SDS011;29359;53.048;8.732;2023-05-07T04:22:39;13.25;;;9.13;;
43744;SDS011;29359;53.048;8.732;2023-05-07T04:24:41;12.38;;;8.93;;
43744;SDS011;29359;53.048;8.732;2023-05-07T04:26:42;13.50;;;9.70;;
43744;SDS011;29359;53.048;8.732;2023-05-07T04:28:44;10.60;;;9.50;;
43744;SDS011;29359;53.048;8.732;2023-05-07T04:30:46;11.23;;;9.23;;
43744;SDS011;29359;53.048;8.732;2023-05-07T04:32:47;13.15;;;9.43;;
43744;SDS011;29359;53.048;8.732;2023-05-07T04:34:49;15.43;;;10.32;;
43744;SDS011;29359;53.048;8.732;2023-05-07T04:36:50;14.30;;;9.70;;
43744;SDS011;29359;53.048;8.732;2023-05-07T04:38:52;10.38;;;9.23;;
43744;SDS011;29359;53.048;8.732;2023-05-07T04:40:53;13.82;;;9.65;;
43744;SDS011;29359;53.048;8.732;2023-05-07T04:42:55;12.80;;;9.82;;
43744;SDS011;29359;53.048;8.732;2023-05-07T04:44:57;14.48;;;9.82;;
43744;SDS011;29359;53.048;8.732;2023-05-07T04:46:58;11.85;;;9.10;;
43744;SDS011;29359;53.048;8.732;2023-05-07T04:49:00;12.50;;;8.80;;
43744;SDS011;29359;53.048;8.732;2023-05-07T04:51:02;12.02;;;9.20;;
43744;SDS011;29359;53.048;8.732;2023-05-07T04:53:03;11.40;;;8.70;;
43744;SDS011;29359;53.048;8.732;2023-05-07T04:55:05;14.23;;;9.68;;
43744;SDS011;29359;53.048;8.732;2023-05-07T04:57:07;10.20;;;9.15;;
43744;SDS011;29359;53.048;8.732;2023-05-07T04:59:08;9.80;;;7.78;;
43744;SDS011;29359;53.048;8.732;2023-05-07T05:01:10;9.35;;;8.38;;
43744;SDS011;29359;53.048;8.732;2023-05-07T05:03:12;12.45;;;9.48;;
43744;SDS011;29359;53.048;8.732;2023-05-07T05:05:13;12.18;;;9.27;;
43744;SDS011;29359;53.048;8.732;2023-05-07T05:07:15;13.05;;;9.07;;
43744;SDS011;29359;53.048;8.732;2023-05-07T05:09:16;12.18;;;8.88;;
43744;SDS011;29359;53.048;8.732;2023-05-07T05:11:18;11.38;;;8.70;;
43744;SDS011;29359;53.048;8.732;2023-05-07T05:13:20;9.30;;;8.20;;
43744;SDS011;29359;53.048;8.732;2023-05-07T05:15:22;12.02;;;8.88;;
43744;SDS011;29359;53.048;8.732;2023-05-07T05:17:24;9.93;;;8.55;;
43744;SDS011;29359;53.048;8.732;2023-05-07T05:19:25;11.00;;;8.10;;
43744;SDS011;29359;53.048;8.732;2023-05-07T05:21:27;11.85;;;8.32;;
43744;SDS011;29359;53.048;8.732;2023-05-07T05:23:29;8.85;;;7.95;;
43744;SDS011;29359;53.048;8.732;2023-05-07T05:25:30;10.18;;;8.63;;
43744;SDS011;29359;53.048;8.732;2023-05-07T05:27:32;10.63;;;8.27;;
43744;SDS011;29359;53.048;8.732;2023-05-07T05:29:33;8.48;;;7.53;;
43744;SDS011;29359;53.048;8.732;2023-05-07T05:31:35;10.57;;;8.25;;
43744;SDS011;29359;53.048;8.732;2023-05-07T05:33:37;11.18;;;8.18;;
43744;SDS011;29359;53.048;8.732;2023-05-07T05:35:39;12.70;;;8.77;;
43744;SDS011;29359;53.048;8.732;2023-05-07T05:37:40;10.23;;;8.80;;
43744;SDS011;29359;53.048;8.732;2023-05-07T05:39:42;8.40;;;7.43;;
43744;SDS011;29359;53.048;8.732;2023-05-07T05:41:43;8.77;;;7.90;;
43744;SDS011;29359;53.048;8.732;2023-05-07T05:43:45;9.05;;;7.30;;
43744;SDS011;29359;53.048;8.732;2023-05-07T05:45:46;10.05;;;7.90;;
43744;SDS011;29359;53.048;8.732;2023-05-07T05:47:48;8.65;;;7.10;;
43744;SDS011;29359;53.048;8.732;2023-05-07T05:49:49;9.05;;;7.82;;
43744;SDS011;29359;53.048;8.732;2023-05-07T05:51:51;11.13;;;6.93;;
43744;SDS011;29359;53.048;8.732;2023-05-07T05:53:52;7.95;;;6.68;;
43744;SDS011;29359;53.048;8.732;2023-05-07T05:55:54;7.10;;;6.43;;
43744;SDS011;29359;53.048;8.732;2023-05-07T05:57:55;6.82;;;6.22;;
43744;SDS011;29359;53.048;8.732;2023-05-07T05:59:57;7.78;;;6.55;;
43744;SDS011;29359;53.048;8.732;2023-05-07T06:01:59;6.80;;;6.20;;
43744;SDS011;29359;53.048;8.732;2023-05-07T06:04:00;8.35;;;6.88;;
43744;SDS011;29359;53.048;8.732;2023-05-07T06:06:02;9.02;;;6.30;;
43744;SDS011;29359;53.048;8.732;2023-05-07T06:08:04;8.43;;;6.78;;
43744;SDS011;29359;53.048;8.732;2023-05-07T06:10:05;7.00;;;6.30;;
43744;SDS011;29359;53.048;8.732;2023-05-07T06:12:07;7.15;;;6.45;;
43744;SDS011;29359;53.048;8.732;2023-05-07T06:14:09;7.20;;;6.50;;
43744;SDS011;29359;53.048;8.732;2023-05-07T06:16:10;7.07;;;6.38;;
43744;SDS011;29359;53.048;8.732;2023-05-07T06:18:12;7.55;;;6.78;;
43744;SDS011;29359;53.048;8.732;2023-05-07T06:20:13;8.05;;;6.53;;
43744;SDS011;29359;53.048;8.732;2023-05-07T06:22:15;6.82;;;6.20;;
43744;SDS011;29359;53.048;8.732;2023-05-07T06:24:17;6.68;;;6.07;;
43744;SDS011;29359;53.048;8.732;2023-05-07T06:26:18;6.15;;;5.65;;
43744;SDS011;29359;53.048;8.732;2023-05-07T06:28:20;7.20;;;6.50;;
43744;SDS011;29359;53.048;8.732;2023-05-07T06:30:21;6.03;;;5.53;;
43744;SDS011;29359;53.048;8.732;2023-05-07T06:32:23;6.30;;;5.25;;
43744;SDS011;29359;53.048;8.732;2023-05-07T06:34:25;6.10;;;5.60;;
43744;SDS011;29359;53.048;8.732;2023-05-07T06:36:26;6.32;;;5.72;;
43744;SDS011;29359;53.048;8.732;2023-05-07T06:38:28;6.35;;;5.35;;
43744;SDS011;29359;53.048;8.732;2023-05-07T06:40:29;7.43;;;5.63;;
43744;SDS011;29359;53.048;8.732;2023-05-07T06:42:31;6.05;;;5.55;;
43744;SDS011;29359;53.048;8.732;2023-05-07T06:44:32;7.93;;;6.10;;
43744;SDS011;29359;53.048;8.732;2023-05-07T06:46:34;6.25;;;5.65;;
43744;SDS011;29359;53.048;8.732;2023-05-07T06:48:35;7.10;;;5.47;;
43744;SDS011;29359;53.048;8.732;2023-05-07T06:50:37;6.03;;;5.53;;
43744;SDS011;29359;53.048;8.732;2023-05-07T06:52:38;10.90;;;5.93;;
43744;SDS011;29359;53.048;8.732;2023-05-07T06:54:40;5.97;;;5.40;;
43744;SDS011;29359;53.048;8.732;2023-05-07T06:56:41;5.70;;;5.20;;
43744;SDS011;29359;53.048;8.732;2023-05-07T06:58:43;6.78;;;6.03;;
43744;SDS011;29359;53.048;8.732;2023-05-07T07:00:45;6.20;;;5.65;;
43744;SDS011;29359;53.048;8.732;2023-05-07T07:02:47;6.57;;;6.07;;
43744;SDS011;29359;53.048;8.732;2023-05-07T07:04:48;6.43;;;5.93;;
43744;SDS011;29359;53.048;8.732;2023-05-07T07:06:51;6.05;;;5.47;;
43744;SDS011;29359;53.048;8.732;2023-05-07T07:08:54;6.53;;;5.90;;
43744;SDS011;29359;53.048;8.732;2023-05-07T07:10:55;6.75;;;5.95;;
43744;SDS011;29359;53.048;8.732;2023-05-07T07:12:57;5.70;;;5.20;;
43744;SDS011;29359;53.048;8.732;2023-05-07T07:14:58;5.15;;;4.75;;
43744;SDS011;29359;53.048;8.732;2023-05-07T07:17:00;5.57;;;5.03;;
43744;SDS011;29359;53.048;8.732;2023-05-07T07:19:01;5.43;;;4.97;;
43744;SDS011;29359;53.048;8.732;2023-05-07T07:21:03;5.43;;;5.03;;
43744;SDS011;29359;53.048;8.732;2023-05-07T07:23:05;7.05;;;5.30;;
43744;SDS011;29359;53.048;8.732;2023-05-07T07:25:06;5.88;;;5.13;;
43744;SDS011;29359;53.048;8.732;2023-05-07T07:27:11;6.10;;;5.50;;
43744;SDS011;29359;53.048;8.732;2023-05-07T07:29:12;5.43;;;5.03;;
43744;SDS011;29359;53.048;8.732;2023-05-07T07:31:14;5.47;;;5.07;;
43744;SDS011;29359;53.048;8.732;2023-05-07T07:33:16;5.70;;;5.07;;
43744;SDS011;29359;53.048;8.732;2023-05-07T07:35:17;5.78;;;5.20;;
43744;SDS011;29359;53.048;8.732;2023-05-07T07:37:19;6.30;;;5.80;;
43744;SDS011;29359;53.048;8.732;2023-05-07T07:39:21;7.18;;;6.35;;
43744;SDS011;29359;53.048;8.732;2023-05-07T07:41:22;7.25;;;6.00;;
43744;SDS011;29359;53.048;8.732;2023-05-07T07:43:23;5.78;;;5.35;;
43744;SDS011;29359;53.048;8.732;2023-05-07T07:45:25;6.93;;;6.32;;
43744;SDS011;29359;53.048;8.732;2023-05-07T07:47:26;7.13;;;6.43;;
43744;SDS011;29359;53.048;8.732;2023-05-07T07:49:28;7.20;;;6.60;;
43744;SDS011;29359;53.048;8.732;2023-05-07T07:51:29;6.78;;;6.13;;
43744;SDS011;29359;53.048;8.732;2023-05-07T07:53:31;7.00;;;5.97;;
43744;SDS011;29359;53.048;8.732;2023-05-07T07:55:37;6.75;;;6.20;;
43744;SDS011;29359;53.048;8.732;2023-05-07T07:57:40;7.10;;;6.50;;
43744;SDS011;29359;53.048;8.732;2023-05-07T07:59:41;7.18;;;6.47;;
43744;SDS011;29359;53.048;8.732;2023-05-07T08:01:44;7.25;;;6.43;;
43744;SDS011;29359;53.048;8.732;2023-05-07T08:03:46;6.85;;;6.25;;
43744;SDS011;29359;53.048;8.732;2023-05-07T08:05:48;6.75;;;6.13;;
43744;SDS011;29359;53.048;8.732;2023-05-07T08:07:51;6.00;;;5.53;;
43744;SDS011;29359;53.048;8.732;2023-05-07T08:09:54;6.20;;;5.70;;
43744;SDS011;29359;53.048;8.732;2023-05-07T08:11:55;6.40;;;5.82;;
43744;SDS011;29359;53.048;8.732;2023-05-07T08:13:57;6.30;;;5.68;;
43744;SDS011;29359;53.048;8.732;2023-05-07T08:15:58;7.82;;;5.80;;
43744;SDS011;29359;53.048;8.732;2023-05-07T08:18:01;8.05;;;5.80;;
43744;SDS011;29359;53.048;8.732;2023-05-07T08:20:04;6.45;;;5.70;;
43744;SDS011;29359;53.048;8.732;2023-05-07T08:22:06;6.82;;;6.22;;
43744;SDS011;29359;53.048;8.732;2023-05-07T08:24:07;6.00;;;5.53;;
43744;SDS011;29359;53.048;8.732;2023-05-07T08:26:09;5.40;;;5.05;;
43744;SDS011;29359;53.048;8.732;2023-05-07T08:28:10;6.18;;;5.68;;
43744;SDS011;29359;53.048;8.732;2023-05-07T08:30:12;5.13;;;4.75;;
43744;SDS011;29359;53.048;8.732;2023-05-07T08:32:14;5.80;;;5.35;;
43744;SDS011;29359;53.048;8.732;2023-05-07T08:34:16;5.82;;;5.32;;
43744;SDS011;29359;53.048;8.732;2023-05-07T08:36:17;5.32;;;4.93;;
43744;SDS011;29359;53.048;8.732;2023-05-07T08:38:20;5.30;;;4.90;;
43744;SDS011;29359;53.048;8.732;2023-05-07T08:40:25;5.38;;;4.88;;
43744;SDS011;29359;53.048;8.732;2023-05-07T08:42:27;5.10;;;4.80;;
43744;SDS011;29359;53.048;8.732;2023-05-07T08:44:32;4.55;;;4.25;;
43744;SDS011;29359;53.048;8.732;2023-05-07T08:46:36;5.05;;;4.65;;
43744;SDS011;29359;53.048;8.732;2023-05-07T08:48:38;5.32;;;4.90;;
43744;SDS011;29359;53.048;8.732;2023-05-07T08:50:39;5.32;;;4.93;;
43744;SDS011;29359;53.048;8.732;2023-05-07T08:52:41;5.20;;;4.82;;
43744;SDS011;29359;53.048;8.732;2023-05-07T08:54:42;5.40;;;5.00;;
43744;SDS011;29359;53.048;8.732;2023-05-07T08:56:44;5.65;;;5.15;;
43744;SDS011;29359;53.048;8.732;2023-05-07T08:58:46;4.78;;;4.40;;
43744;SDS011;29359;53.048;8.732;2023-05-07T09:00:47;7.55;;;5.22;;
43744;SDS011;29359;53.048;8.732;2023-05-07T09:02:49;5.43;;;5.03;;
43744;SDS011;29359;53.048;8.732;2023-05-07T09:04:50;4.65;;;4.25;;
43744;SDS011;29359;53.048;8.732;2023-05-07T09:06:52;5.35;;;4.90;;
43744;SDS011;29359;53.048;8.732;2023-05-07T09:08:54;4.97;;;4.63;;
43744;SDS011;29359;53.048;8.732;2023-05-07T09:10:56;5.97;;;4.78;;
43744;SDS011;29359;53.048;8.732;2023-05-07T09:12:58;5.95;;;4.78;;
43744;SDS011;29359;53.048;8.732;2023-05-07T09:14:59;4.70;;;4.40;;
43744;SDS011;29359;53.048;8.732;2023-05-07T09:17:01;5.13;;;4.72;;
43744;SDS011;29359;53.048;8.732;2023-05-07T09:19:02;5.22;;;4.82;;
43744;SDS011;29359;53.048;8.732;2023-05-07T09:21:04;6.38;;;4.97;;
43744;SDS011;29359;53.048;8.732;2023-05-07T09:23:06;5.10;;;4.70;;
43744;SDS011;29359;53.048;8.732;2023-05-07T09:25:08;5.45;;;4.95;;
43744;SDS011;29359;53.048;8.732;2023-05-07T09:27:11;5.75;;;5.25;;
43744;SDS011;29359;53.048;8.732;2023-05-07T09:29:15;5.35;;;4.95;;
43744;SDS011;29359;53.048;8.732;2023-05-07T09:31:16;5.78;;;5.30;;
43744;SDS011;29359;53.048;8.732;2023-05-07T09:33:21;5.53;;;5.03;;
43744;SDS011;29359;53.048;8.732;2023-05-07T09:35:27;5.50;;;5.00;;
43744;SDS011;29359;53.048;8.732;2023-05-07T09:37:30;6.13;;;5.57;;
43744;SDS011;29359;53.048;8.732;2023-05-07T09:39:41;5.78;;;5.35;;
43744;SDS011;29359;53.048;8.732;2023-05-07T09:41:47;6.00;;;5.50;;
43744;SDS011;29359;53.048;8.732;2023-05-07T09:43:53;5.68;;;5.18;;
43744;SDS011;29359;53.048;8.732;2023-05-07T09:45:55;5.47;;;5.05;;
43744;SDS011;29359;53.048;8.732;2023-05-07T09:47:58;5.65;;;5.15;;
43744;SDS011;29359;53.048;8.732;2023-05-07T09:50:00;6.40;;;5.90;;
43744;SDS011;29359;53.048;8.732;2023-05-07T09:52:07;6.22;;;5.68;;
43744;SDS011;29359;53.048;8.732;2023-05-07T09:54:11;5.72;;;5.32;;
43744;SDS011;29359;53.048;8.732;2023-05-07T09:56:13;7.70;;;5.53;;
43744;SDS011;29359;53.048;8.732;2023-05-07T09:58:16;6.38;;;5.75;;
43744;SDS011;29359;53.048;8.732;2023-05-07T10:00:20;5.75;;;5.30;;
43744;SDS011;29359;53.048;8.732;2023-05-07T10:02:22;6.05;;;5.55;;
43744;SDS011;29359;53.048;8.732;2023-05-07T10:04:25;6.65;;;6.05;;
43744;SDS011;29359;53.048;8.732;2023-05-07T10:06:27;6.65;;;6.15;;
43744;SDS011;29359;53.048;8.732;2023-05-07T10:08:30;8.93;;;6.18;;
43744;SDS011;29359;53.048;8.732;2023-05-07T10:10:32;6.00;;;5.53;;
43744;SDS011;29359;53.048;8.732;2023-05-07T10:12:35;6.00;;;5.50;;
43744;SDS011;29359;53.048;8.732;2023-05-07T10:14:40;7.10;;;5.95;;
43744;SDS011;29359;53.048;8.732;2023-05-07T10:16:41;6.75;;;6.07;;
43744;SDS011;29359;53.048;8.732;2023-05-07T10:18:43;6.35;;;5.75;;
43744;SDS011;29359;53.048;8.732;2023-05-07T10:20:47;6.00;;;5.53;;
43744;SDS011;29359;53.048;8.732;2023-05-07T10:22:49;6.60;;;5.85;;
43744;SDS011;29359;53.048;8.732;2023-05-07T10:24:54;6.13;;;5.55;;
43744;SDS011;29359;53.048;8.732;2023-05-07T10:27:01;7.47;;;6.13;;
43744;SDS011;29359;53.048;8.732;2023-05-07T10:29:18;6.50;;;5.93;;
43744;SDS011;29359;53.048;8.732;2023-05-07T10:33:49;5.65;;;5.15;;
43744;SDS011;29359;53.048;8.732;2023-05-07T10:35:57;5.93;;;5.32;;
43744;SDS011;29359;53.048;8.732;2023-05-07T10:38:01;5.88;;;5.35;;
43744;SDS011;29359;53.048;8.732;2023-05-07T10:40:04;6.40;;;5.80;;
43744;SDS011;29359;53.048;8.732;2023-05-07T10:42:11;8.82;;;5.70;;
43744;SDS011;29359;53.048;8.732;2023-05-07T10:44:27;5.65;;;5.22;;
43744;SDS011;29359;53.048;8.732;2023-05-07T10:46:29;6.43;;;5.40;;
43744;SDS011;29359;53.048;8.732;2023-05-07T10:48:31;6.95;;;6.25;;
43744;SDS011;29359;53.048;8.732;2023-05-07T10:50:33;6.75;;;6.15;;
43744;SDS011;29359;53.048;8.732;2023-05-07T10:52:36;6.57;;;6.07;;
43744;SDS011;29359;53.048;8.732;2023-05-07T10:54:37;6.75;;;6.15;;
43744;SDS011;29359;53.048;8.732;2023-05-07T10:56:40;6.45;;;5.95;;
43744;SDS011;29359;53.048;8.732;2023-05-07T10:58:45;8.93;;;5.82;;
43744;SDS011;29359;53.048;8.732;2023-05-07T11:00:47;6.63;;;6.03;;
43744;SDS011;29359;53.048;8.732;2023-05-07T11:05:18;9.55;;;6.20;;
43744;SDS011;29359;53.048;8.732;2023-05-07T11:07:27;6.78;;;6.07;;
43744;SDS011;29359;53.048;8.732;2023-05-07T11:12:02;6.72;;;6.13;;
43744;SDS011;29359;53.048;8.732;2023-05-07T11:14:04;8.15;;;5.63;;
43744;SDS011;29359;53.048;8.732;2023-05-07T11:16:15;6.72;;;6.07;;
43744;SDS011;29359;53.048;8.732;2023-05-07T11:18:18;6.30;;;5.78;;
43744;SDS011;29359;53.048;8.732;2023-05-07T11:20:20;6.63;;;6.10;;
43744;SDS011;29359;53.048;8.732;2023-05-07T11:22:42;7.20;;;6.20;;
43744;SDS011;29359;53.048;8.732;2023-05-07T11:24:44;7.05;;;6.45;;
43744;SDS011;29359;53.048;8.732;2023-05-07T11:26:49;8.98;;;6.03;;
43744;SDS011;29359;53.048;8.732;2023-05-07T11:28:51;7.18;;;6.40;;
43744;SDS011;29359;53.048;8.732;2023-05-07T11:30:54;7.90;;;6.60;;
43744;SDS011;29359;53.048;8.732;2023-05-07T11:32:57;6.88;;;6.28;;
43744;SDS011;29359;53.048;8.732;2023-05-07T11:35:00;6.47;;;5.88;;
43744;SDS011;29359;53.048;8.732;2023-05-07T11:37:02;6.88;;;6.18;;
43744;SDS011;29359;53.048;8.732;2023-05-07T11:39:04;6.55;;;5.95;;
43744;SDS011;29359;53.048;8.732;2023-05-07T11:41:05;6.68;;;6.07;;
43744;SDS011;29359;53.048;8.732;2023-05-07T11:43:11;6.43;;;5.82;;
43744;SDS011;29359;53.048;8.732;2023-05-07T11:45:13;6.40;;;5.90;;
43744;SDS011;29359;53.048;8.732;2023-05-07T11:47:25;6.20;;;5.70;;
43744;SDS011;29359;53.048;8.732;2023-05-07T11:49:27;7.60;;;5.70;;
43744;SDS011;29359;53.048;8.732;2023-05-07T11:51:30;6.90;;;6.07;;
43744;SDS011;29359;53.048;8.732;2023-05-07T11:53:36;7.22;;;5.93;;
43744;SDS011;29359;53.048;8.732;2023-05-07T11:55:41;6.32;;;5.82;;
43744;SDS011;29359;53.048;8.732;2023-05-07T11:57:43;5.93;;;5.43;;
43744;SDS011;29359;53.048;8.732;2023-05-07T11:59:46;5.90;;;5.40;;
43744;SDS011;29359;53.048;8.732;2023-05-07T12:01:50;6.55;;;5.72;;
43744;SDS011;29359;53.048;8.732;2023-05-07T12:03:52;5.82;;;5.25;;
43744;SDS011;29359;53.048;8.732;2023-05-07T12:05:54;6.38;;;5.88;;
43744;SDS011;29359;53.048;8.732;2023-05-07T12:07:56;5.60;;;5.10;;
43744;SDS011;29359;53.048;8.732;2023-05-07T12:09:58;5.82;;;5.28;;
43744;SDS011;29359;53.048;8.732;2023-05-07T12:12:03;5.55;;;5.05;;
43744;SDS011;29359;53.048;8.732;2023-05-07T12:14:06;5.28;;;4.88;;
43744;SDS011;29359;53.048;8.732;2023-05-07T12:16:12;6.00;;;5.53;;
43744;SDS011;29359;53.048;8.732;2023-05-07T12:18:13;5.47;;;5.03;;